Time;durP1;ratioP1;P1;durP2;ratioP2;P2;SDS_P1;SDS_P2;PMS_P1;PMS_P2;Temp;Humidity;BMP_temperature;BMP_pressure;BME280_temperature;BME280_humidity;BME280_pressure;Samples;Min_cycle;Max_cycle;Signal;HPM_P1;HPM_P2
2021/07/20 00:01:37;;;;;;;19.83;13.43;;;;;;;22.05;54.81;100577.78;5030926;28;20411;-79
2021/07/20 00:04:03;;;;;;;17.53;12.80;;;;;;;22.02;55.04;100579.25;5031025;28;20744;-79
2021/07/20 00:06:29;;;;;;;16.40;12.97;;;;;;;22.03;55.58;100577.31;5012209;28;20415;-79
2021/07/20 00:08:54;;;;;;;15.23;12.68;;;;;;;22.02;55.68;100573.75;5030826;28;20410;-79
2021/07/20 00:11:19;;;;;;;20.47;13.53;;;;;;;22.00;55.83;100580.69;5030999;28;20395;-79
2021/07/20 00:13:45;;;;;;;16.53;13.00;;;;;;;21.98;55.49;100577.44;5030112;28;20395;-79
2021/07/20 00:16:10;;;;;;;18.50;14.27;;;;;;;21.95;55.79;100578.91;5013200;28;20406;-79
2021/07/20 00:18:36;;;;;;;17.73;13.65;;;;;;;21.94;55.60;100577.25;5030916;28;20395;-79
2021/07/20 00:21:05;;;;;;;16.90;13.07;;;;;;;21.92;55.33;100584.22;5030268;28;20451;-79
2021/07/20 00:23:31;;;;;;;18.20;13.45;;;;;;;21.89;55.52;100582.94;5030118;28;20808;-79
2021/07/20 00:25:56;;;;;;;15.82;12.93;;;;;;;21.84;55.78;100577.50;5013047;28;20399;-79
2021/07/20 00:28:22;;;;;;;16.73;12.83;;;;;;;21.82;55.80;100587.22;5030158;28;20925;-79
2021/07/20 00:30:48;;;;;;;17.15;13.68;;;;;;;21.76;56.07;100572.75;5030894;28;20399;-79
2021/07/20 00:33:14;;;;;;;17.70;13.67;;;;;;;21.72;56.26;100578.09;5029030;28;20449;-79
2021/07/20 00:35:41;;;;;;;17.95;14.75;;;;;;;21.72;56.67;100585.56;5030681;28;20430;-79
2021/07/20 00:38:06;;;;;;;17.33;13.98;;;;;;;21.69;56.49;100580.66;5030133;28;20500;-79
2021/07/20 00:40:32;;;;;;;19.65;14.45;;;;;;;21.63;56.83;100581.94;5030365;28;20419;-79
2021/07/20 00:42:59;;;;;;;20.43;14.27;;;;;;;21.59;56.57;100584.50;5029866;28;20413;-79
2021/07/20 00:45:24;;;;;;;17.60;14.32;;;;;;;21.58;56.84;100582.06;5030952;28;20408;-79
2021/07/20 00:47:50;;;;;;;20.90;14.50;;;;;;;21.56;56.77;100581.56;5031154;28;20401;-79
2021/07/20 00:50:22;;;;;;;18.53;14.40;;;;;;;21.52;56.69;100575.03;5030524;28;20464;-79
2021/07/20 00:52:47;;;;;;;18.88;13.00;;;;;;;21.50;56.74;100585.59;5031289;28;20391;-79
2021/07/20 00:55:13;;;;;;;18.88;13.13;;;;;;;21.45;57.43;100580.19;5030791;28;20452;-79
2021/07/20 00:57:40;;;;;;;16.00;12.27;;;;;;;21.42;57.38;100573.38;5030474;28;20502;-79
2021/07/20 01:00:09;;;;;;;14.90;13.05;;;;;;;21.39;57.23;100576.75;5012187;28;20446;-79
2021/07/20 01:02:34;;;;;;;16.92;14.10;;;;;;;21.42;57.14;100578.06;5031152;28;20392;-79
2021/07/20 01:05:00;;;;;;;20.70;14.57;;;;;;;21.39;57.21;100579.50;5014328;28;20402;-79
2021/07/20 01:07:26;;;;;;;16.60;14.37;;;;;;;21.35;57.60;100580.44;5035005;28;20406;-79
2021/07/20 01:09:54;;;;;;;18.45;14.43;;;;;;;21.33;57.70;100582.69;5033232;28;20442;-79
2021/07/20 01:12:21;;;;;;;18.73;14.25;;;;;;;21.35;57.75;100577.69;5017739;28;20390;-79
2021/07/20 01:14:48;;;;;;;19.55;14.25;;;;;;;21.35;57.42;100574.91;5030978;28;20403;-79
2021/07/20 01:17:14;;;;;;;18.15;13.07;;;;;;;21.33;57.74;100577.19;5034257;28;20495;-79
2021/07/20 01:19:49;;;;;;;23.20;14.57;;;;;;;21.32;57.57;100581.06;5034408;28;20828;-79
2021/07/20 01:22:19;;;;;;;17.48;13.70;;;;;;;21.27;57.92;100582.03;5032625;28;20747;-79
2021/07/20 01:24:44;;;;;;;22.75;13.88;;;;;;;21.22;58.52;100582.13;5016671;28;20410;-79
2021/07/20 01:27:11;;;;;;;16.83;14.23;;;;;;;21.16;58.99;100573.19;5034434;28;20770;-79
2021/07/20 01:29:38;;;;;;;17.67;14.30;;;;;;;21.11;59.08;100576.03;5034508;28;20759;-79
2021/07/20 01:32:04;;;;;;;18.38;14.32;;;;;;;21.06;58.99;100569.81;5031915;28;20788;-79
2021/07/20 01:34:30;;;;;;;16.60;14.30;;;;;;;20.97;58.98;100571.69;5032694;28;20468;-79
2021/07/20 01:36:56;;;;;;;17.13;14.88;;;;;;;20.89;59.40;100570.47;5034217;28;20403;-79
2021/07/20 01:39:23;;;;;;;18.98;14.20;;;;;;;20.88;58.96;100570.81;5034386;28;20478;-79
2021/07/20 01:41:49;;;;;;;19.75;14.32;;;;;;;20.85;59.04;100572.22;5032957;28;20422;-79
2021/07/20 01:44:15;;;;;;;17.83;15.35;;;;;;;20.83;59.09;100566.22;5033159;28;20508;-79
2021/07/20 01:46:41;;;;;;;18.25;14.57;;;;;;;20.79;59.22;100562.44;5033938;28;20430;-79
2021/07/20 01:49:11;;;;;;;20.03;15.00;;;;;;;20.82;59.55;100564.56;5034222;28;20852;-79
2021/07/20 01:51:37;;;;;;;21.17;14.48;;;;;;;20.81;59.33;100564.91;5032376;28;20411;-79
2021/07/20 01:54:04;;;;;;;19.15;14.98;;;;;;;20.81;58.95;100570.41;5015503;28;20805;-79
2021/07/20 01:56:29;;;;;;;23.30;15.27;;;;;;;20.81;59.27;100576.72;5033763;28;20391;-79
2021/07/20 01:58:55;;;;;;;21.20;15.57;;;;;;;20.82;59.21;100574.78;5033763;28;20739;-79
2021/07/20 02:01:35;;;;;;;19.48;14.27;;;;;;;20.80;59.70;100571.53;5032865;28;20468;-79
2021/07/20 02:09:27;;;;;;;19.80;15.05;;;;;;;20.71;60.12;100574.22;5033851;28;20936;-79
2021/07/20 02:11:54;;;;;;;20.85;15.15;;;;;;;20.70;59.83;100575.31;5032768;28;20414;-79
2021/07/20 02:14:23;;;;;;;19.50;14.40;;;;;;;20.67;59.70;100579.53;5033892;28;20399;-79
2021/07/20 02:16:49;;;;;;;18.05;13.60;;;;;;;20.64;59.54;100571.88;5032618;28;20473;-79
2021/07/20 02:20:01;;;;;;;18.52;15.02;;;;;;;20.57;59.93;100567.91;5033586;28;20391;-79
2021/07/20 02:22:26;;;;;;;24.25;14.77;;;;;;;20.54;60.16;100568.53;4996102;28;20419;-79
2021/07/20 02:24:56;;;;;;;28.73;14.77;;;;;;;20.48;60.08;100570.53;5033497;28;20747;-79
2021/07/20 02:27:24;;;;;;;17.00;14.60;;;;;;;20.46;59.97;100560.97;5033451;28;20423;-78
2021/07/20 02:29:54;;;;;;;17.75;14.02;;;;;;;20.42;60.08;100563.53;5032269;28;20493;-79
2021/07/20 02:32:21;;;;;;;17.95;14.80;;;;;;;20.41;60.02;100566.59;5033327;28;20427;-79
2021/07/20 02:34:47;;;;;;;17.90;14.85;;;;;;;20.37;60.18;100566.41;5033207;28;20403;-79
2021/07/20 02:37:13;;;;;;;19.85;14.75;;;;;;;20.35;60.09;100557.63;5033346;28;20390;-79
2021/07/20 02:39:40;;;;;;;20.73;14.07;;;;;;;20.35;59.69;100563.13;5032322;28;20415;-79
2021/07/20 02:42:06;;;;;;;19.20;14.90;;;;;;;20.31;59.64;100569.56;5033182;28;20425;-79
2021/07/20 02:44:32;;;;;;;17.45;14.43;;;;;;;20.29;60.22;100564.34;5033311;28;20912;-79
2021/07/20 02:46:59;;;;;;;20.95;13.60;;;;;;;20.31;59.98;100564.06;5032181;28;20635;-79
2021/07/20 02:49:25;;;;;;;18.17;13.88;;;;;;;20.31;59.87;100562.13;5033331;28;20918;-79
2021/07/20 02:51:51;;;;;;;20.58;15.18;;;;;;;20.30;59.86;100565.16;5032887;28;20421;-79
2021/07/20 02:54:20;;;;;;;21.70;14.35;;;;;;;20.28;60.42;100557.25;5033049;28;20591;-79
2021/07/20 02:56:46;;;;;;;23.90;14.63;;;;;;;20.27;60.13;100557.53;5032068;28;20473;-79
2021/07/20 02:59:14;;;;;;;21.05;14.27;;;;;;;20.22;59.91;100555.66;5032762;28;20414;-79
2021/07/20 03:01:41;;;;;;;19.15;14.95;;;;;;;20.22;60.37;100560.38;5032589;28;20419;-79
2021/07/20 03:04:15;;;;;;;20.87;14.70;;;;;;;20.18;60.81;100560.97;5032752;28;20398;-79
2021/07/20 03:06:48;;;;;;;19.63;14.73;;;;;;;20.17;60.70;100555.78;5032249;28;20407;-79
2021/07/20 03:09:14;;;;;;;19.02;14.32;;;;;;;20.13;60.77;100563.00;5032188;28;20396;-78
2021/07/20 03:11:43;;;;;;;22.42;15.32;;;;;;;20.10;60.72;100560.88;5032552;28;20411;-79
2021/07/20 03:14:14;;;;;;;25.88;15.95;;;;;;;20.08;60.84;100560.38;5031436;28;20801;-79
2021/07/20 03:16:43;;;;;;;24.17;15.20;;;;;;;20.05;61.02;100558.22;5032403;28;20491;-79
2021/07/20 03:19:11;;;;;;;23.80;15.15;;;;;;;20.04;61.08;100562.91;5032376;28;20410;-78
2021/07/20 03:21:38;;;;;;;20.92;15.75;;;;;;;20.02;61.15;100556.88;5032276;28;20454;-79
2021/07/20 03:24:05;;;;;;;22.60;14.80;;;;;;;19.99;61.22;100553.94;5031322;28;20407;-79
2021/07/20 03:26:34;;;;;;;22.92;15.57;;;;;;;19.96;61.38;100555.34;5032371;28;20422;-79
2021/07/20 03:28:59;;;;;;;20.27;14.40;;;;;;;19.94;61.14;100559.53;5031912;28;20379;-78
2021/07/20 03:31:25;;;;;;;20.87;15.20;;;;;;;19.93;61.28;100555.13;5032347;28;20437;-79
2021/07/20 03:33:51;;;;;;;21.88;15.13;;;;;;;19.91;61.30;100554.66;5030184;28;20415;-79
2021/07/20 03:36:17;;;;;;;22.95;14.65;;;;;;;19.89;61.73;100556.91;5030880;28;20894;-79
2021/07/20 03:38:43;;;;;;;21.13;15.20;;;;;;;19.89;61.66;100560.44;5031958;28;20383;-79
2021/07/20 03:41:10;;;;;;;21.33;15.07;;;;;;;19.87;61.50;100561.88;5031435;28;20546;-79
2021/07/20 03:43:36;;;;;;;21.92;15.18;;;;;;;19.83;61.79;100566.34;5031668;28;20406;-79
2021/07/20 03:46:02;;;;;;;19.20;14.88;;;;;;;19.81;61.93;100563.91;5031925;28;20805;-79
2021/07/20 03:48:29;;;;;;;19.93;14.33;;;;;;;19.80;61.53;100567.75;5031344;28;20399;-79
2021/07/20 03:50:55;;;;;;;20.65;15.02;;;;;;;19.79;61.70;100570.84;5012702;28;20451;-79
2021/07/20 03:53:20;;;;;;;21.30;14.33;;;;;;;19.77;61.15;100573.06;5029927;28;20403;-79
2021/07/20 03:55:49;;;;;;;21.53;14.50;;;;;;;19.71;61.16;100572.34;5030302;28;20414;-79
2021/07/20 03:58:16;;;;;;;18.42;14.15;;;;;;;19.67;61.43;100576.81;5029267;28;20487;-79
2021/07/20 04:00:42;;;;;;;21.13;14.87;;;;;;;19.62;61.40;100582.41;5024105;28;20422;-79
2021/07/20 04:03:22;;;;;;;17.77;14.48;;;;;;;19.55;61.86;100582.78;5027048;28;20399;-80
2021/07/20 04:05:56;;;;;;;19.52;14.80;;;;;;;19.50;61.98;100580.13;5022749;28;20398;-80
2021/07/20 04:08:23;;;;;;;24.67;15.45;;;;;;;19.48;62.30;100574.13;5007358;28;20410;-79
2021/07/20 04:10:51;;;;;;;21.33;14.85;;;;;;;19.50;62.73;100580.13;5029209;28;20461;-79
2021/07/20 04:13:17;;;;;;;20.00;14.38;;;;;;;19.52;62.71;100580.66;5031155;28;20399;-79
2021/07/20 04:15:47;;;;;;;20.77;14.23;;;;;;;19.55;62.58;100580.03;5030981;28;20430;-80
2021/07/20 04:18:13;;;;;;;23.10;14.90;;;;;;;19.56;62.28;100584.41;5029632;28;20736;-78
2021/07/20 04:20:39;;;;;;;20.20;15.05;;;;;;;19.52;62.59;100583.41;5030108;28;20413;-78
2021/07/20 04:23:06;;;;;;;21.15;15.05;;;;;;;19.50;63.22;100585.63;5030520;28;20411;-78
2021/07/20 04:25:35;;;;;;;20.77;15.40;;;;;;;19.52;63.48;100593.56;5030145;28;20399;-78
2021/07/20 04:28:00;;;;;;;23.97;14.80;;;;;;;19.53;63.33;100596.00;5012114;28;20476;-78
2021/07/20 04:30:26;;;;;;;19.53;14.90;;;;;;;19.55;62.80;100596.53;5030660;28;20506;-78
2021/07/20 04:32:54;;;;;;;19.60;14.50;;;;;;;19.57;62.85;100591.53;5030490;28;20778;-78
2021/07/20 04:35:21;;;;;;;17.27;14.50;;;;;;;19.59;62.86;100592.03;5031066;28;20406;-78
2021/07/20 04:37:47;;;;;;;20.05;15.45;;;;;;;19.61;62.67;100600.00;5030900;28;20402;-78
2021/07/20 04:40:14;;;;;;;21.80;16.23;;;;;;;19.59;62.16;100599.50;5031375;28;20402;-78
2021/07/20 04:42:41;;;;;;;19.63;15.50;;;;;;;19.57;62.08;100598.97;5032544;28;20403;-78
2021/07/20 04:45:08;;;;;;;22.42;15.40;;;;;;;19.53;62.10;100604.25;5015182;28;20759;-78
2021/07/20 04:47:36;;;;;;;20.08;14.75;;;;;;;19.53;61.86;100607.00;5034637;28;20735;-77
2021/07/20 04:50:03;;;;;;;24.38;15.32;;;;;;;19.56;61.82;100608.34;5034392;28;20405;-78
2021/07/20 04:52:28;;;;;;;17.42;14.45;;;;;;;19.59;61.89;100594.78;5026054;28;20869;-77
2021/07/20 04:54:55;;;;;;;19.50;14.33;;;;;;;19.62;61.38;100607.97;5034470;28;20410;-78
2021/07/20 04:57:20;;;;;;;20.25;15.73;;;;;;;19.62;61.52;100607.97;5033099;28;20399;-78
2021/07/20 04:59:45;;;;;;;21.03;14.97;;;;;;;19.64;61.65;100611.22;5033723;28;20441;-79
2021/07/20 05:02:14;;;;;;;18.37;14.60;;;;;;;19.65;61.31;100618.38;5032737;28;20497;-78
2021/07/20 05:04:41;;;;;;;20.25;14.13;;;;;;;19.63;61.29;100617.81;5032478;28;20418;-76
2021/07/20 05:07:11;;;;;;;19.47;14.67;;;;;;;19.63;61.03;100619.75;5012684;28;20482;-77
2021/07/20 05:09:38;;;;;;;21.27;15.50;;;;;;;19.65;61.32;100621.09;5033795;28;20410;-78
2021/07/20 05:12:05;;;;;;;20.52;14.48;;;;;;;19.68;61.33;100626.00;5034573;28;20418;-78
2021/07/20 05:14:31;;;;;;;27.73;14.57;;;;;;;19.70;60.57;100628.44;5034676;28;20394;-79
2021/07/20 05:16:56;;;;;;;16.73;14.03;;;;;;;19.72;60.95;100628.16;5035357;28;20748;-78
2021/07/20 05:19:23;;;;;;;20.33;14.47;;;;;;;19.76;60.59;100624.47;5034469;28;20464;-77
2021/07/20 05:21:49;;;;;;;20.30;14.63;;;;;;;19.80;60.37;100630.19;5034373;28;20414;-78
2021/07/20 05:24:15;;;;;;;19.90;13.90;;;;;;;19.82;60.54;100631.53;5034801;28;20485;-79
2021/07/20 05:26:45;;;;;;;21.40;14.27;;;;;;;19.86;60.37;100626.22;5032675;28;20465;-78
2021/07/20 05:29:14;;;;;;;21.07;15.13;;;;;;;19.87;59.90;100633.38;5039610;28;20472;-78
2021/07/20 05:31:39;;;;;;;19.17;14.18;;;;;;;19.86;60.49;100628.97;5032615;28;20423;-78
2021/07/20 05:34:05;;;;;;;18.52;14.35;;;;;;;19.86;60.47;100626.22;5033910;28;20425;-79
2021/07/20 05:36:30;;;;;;;19.40;14.90;;;;;;;19.87;60.40;100622.38;5014847;28;20406;-78
2021/07/20 05:38:56;;;;;;;18.13;14.80;;;;;;;19.89;60.86;100622.91;5034255;28;20391;-78
2021/07/20 05:41:21;;;;;;;22.73;15.93;;;;;;;19.91;61.21;100626.97;5038033;28;20418;-78
2021/07/20 05:43:47;;;;;;;20.83;15.63;;;;;;;19.93;61.47;100621.16;5032925;28;20425;-80
2021/07/20 05:46:16;;;;;;;20.23;15.07;;;;;;;19.93;61.17;100629.41;5033142;28;20493;-77
2021/07/20 05:48:42;;;;;;;19.65;14.85;;;;;;;19.92;60.81;100628.59;5037330;28;20407;-77
2021/07/20 05:51:10;;;;;;;21.35;14.95;;;;;;;19.94;61.27;100629.13;5034168;28;20526;-78
2021/07/20 05:53:37;;;;;;;19.63;15.05;;;;;;;19.97;61.26;100642.25;5033164;28;20391;-78
2021/07/20 05:56:04;;;;;;;18.50;15.00;;;;;;;19.99;60.73;100633.72;5016224;28;20475;-79
2021/07/20 05:58:30;;;;;;;17.10;14.07;;;;;;;20.00;60.74;100638.09;5033912;28;20407;-78
2021/07/20 06:01:00;;;;;;;21.27;14.10;;;;;;;20.02;60.33;100641.38;5032725;28;20878;-77
2021/07/20 06:03:26;;;;;;;17.13;14.02;;;;;;;20.00;59.42;100636.16;5033061;28;21051;-77
2021/07/20 06:05:54;;;;;;;19.20;14.00;;;;;;;19.98;59.18;100643.09;5032745;28;20449;-77
2021/07/20 06:08:22;;;;;;;19.00;13.77;;;;;;;19.96;59.14;100639.81;5033695;28;20423;-77
2021/07/20 06:10:52;;;;;;;20.60;14.20;;;;;;;19.98;59.05;100649.41;5036137;28;20903;-77
2021/07/20 06:13:19;;;;;;;16.27;13.27;;;;;;;20.03;59.41;100652.06;5032928;28;20793;-76
2021/07/20 06:15:47;;;;;;;19.17;13.50;;;;;;;20.07;59.05;100646.75;5036881;28;20789;-77
2021/07/20 06:18:13;;;;;;;18.80;14.02;;;;;;;20.08;58.55;100651.16;5036518;28;20409;-77
2021/07/20 06:20:46;;;;;;;16.10;13.30;;;;;;;20.13;59.13;100653.78;5034247;28;20406;-76
2021/07/20 06:23:13;;;;;;;17.58;14.02;;;;;;;20.09;59.04;100653.59;5016979;28;20467;-77
2021/07/20 06:25:40;;;;;;;17.88;13.57;;;;;;;20.03;58.78;100649.31;5042015;28;20398;-77
2021/07/20 06:28:06;;;;;;;18.92;13.75;;;;;;;20.00;59.25;100658.16;5015342;28;20397;-76
2021/07/20 06:30:33;;;;;;;18.80;14.23;;;;;;;20.00;59.31;100663.66;5029884;28;20879;-77
2021/07/20 06:32:58;;;;;;;20.00;14.63;;;;;;;19.99;59.12;100664.78;5032044;28;20526;-76
2021/07/20 06:35:24;;;;;;;20.47;14.30;;;;;;;20.01;59.31;100664.47;5032849;28;20460;-77
2021/07/20 06:37:50;;;;;;;18.98;14.40;;;;;;;20.04;59.31;100666.63;5033195;28;20418;-77
2021/07/20 06:40:18;;;;;;;20.00;15.23;;;;;;;20.02;59.24;100668.88;5033390;28;20575;-76
2021/07/20 06:42:45;;;;;;;19.33;14.05;;;;;;;20.10;59.43;100659.91;5014662;28;20411;-76
2021/07/20 06:45:14;;;;;;;18.40;13.82;;;;;;;20.14;59.00;100669.19;5033099;28;20387;-76
2021/07/20 06:47:42;;;;;;;18.45;14.85;;;;;;;20.16;59.06;100659.50;5033129;28;20395;-76
2021/07/20 06:50:09;;;;;;;22.38;14.63;;;;;;;20.16;59.37;100666.94;5033070;28;20396;-77
2021/07/20 06:52:35;;;;;;;17.63;14.32;;;;;;;20.20;59.77;100665.22;5013891;28;21416;-76
2021/07/20 06:55:01;;;;;;;20.05;14.30;;;;;;;20.27;59.00;100656.59;5033006;28;20407;-76
2021/07/20 06:57:28;;;;;;;20.20;14.45;;;;;;;20.28;59.38;100664.56;5032761;28;20441;-77
2021/07/20 06:59:57;;;;;;;18.60;14.50;;;;;;;20.28;58.98;100666.50;5032937;28;20403;-76
2021/07/20 07:02:24;;;;;;;21.27;15.02;;;;;;;20.32;58.92;100665.56;5031525;28;20414;-76
2021/07/20 07:04:56;;;;;;;22.00;13.70;;;;;;;20.35;58.29;100666.91;5032276;28;20391;-77
2021/07/20 07:07:23;;;;;;;20.40;13.48;;;;;;;20.41;58.64;100672.03;5014767;28;20795;-76
2021/07/20 07:09:50;;;;;;;19.85;13.90;;;;;;;20.41;58.58;100672.03;5031841;28;20422;-77
2021/07/20 07:12:17;;;;;;;18.42;13.40;;;;;;;20.43;59.01;100667.03;5032517;28;20418;-77
2021/07/20 07:14:44;;;;;;;18.10;12.85;;;;;;;20.48;58.55;100668.88;5031899;28;20509;-77
2021/07/20 07:17:10;;;;;;;17.70;13.45;;;;;;;20.49;58.26;100668.53;5032295;28;20897;-77
2021/07/20 07:19:35;;;;;;;19.48;13.68;;;;;;;20.53;58.74;100668.75;5032391;28;20459;-76
2021/07/20 07:22:01;;;;;;;16.07;14.00;;;;;;;20.57;58.76;100672.53;5030877;28;20403;-77
2021/07/20 07:24:28;;;;;;;19.27;13.32;;;;;;;20.63;58.95;100669.38;5031549;28;20410;-76
2021/07/20 07:26:54;;;;;;;16.17;12.77;;;;;;;20.68;58.22;100676.72;5032657;28;20403;-77
2021/07/20 07:29:21;;;;;;;20.42;13.13;;;;;;;20.70;58.43;100675.28;5032187;28;20924;-77
2021/07/20 07:31:48;;;;;;;19.50;13.50;;;;;;;20.69;58.26;100672.81;5014222;28;20408;-76
2021/07/20 07:34:14;;;;;;;20.70;14.23;;;;;;;20.68;58.33;100671.22;5011434;28;20833;-77
2021/07/20 07:36:44;;;;;;;16.75;13.20;;;;;;;20.61;58.48;100668.84;5035985;28;20407;-77
2021/07/20 07:39:12;;;;;;;19.10;13.10;;;;;;;20.66;58.18;100666.00;5031791;28;20398;-77
2021/07/20 07:41:39;;;;;;;20.80;13.02;;;;;;;20.76;57.94;100664.97;5031581;28;20423;-77
2021/07/20 07:44:06;;;;;;;18.63;13.25;;;;;;;20.79;58.15;100663.53;5012948;28;20457;-77
2021/07/20 07:46:38;;;;;;;24.60;13.25;;;;;;;20.85;57.89;100665.88;5031924;28;20398;-77
2021/07/20 07:49:03;;;;;;;18.25;12.75;;;;;;;20.86;57.67;100661.19;5032166;28;20403;-77
2021/07/20 07:51:29;;;;;;;16.70;12.87;;;;;;;20.95;57.99;100667.59;5031959;28;20391;-77
2021/07/20 07:53:59;;;;;;;16.88;13.50;;;;;;;20.98;57.53;100664.22;5023614;28;20981;-76
2021/07/20 07:56:28;;;;;;;15.73;12.48;;;;;;;21.04;56.82;100671.28;5026651;28;20418;-77
2021/07/20 07:58:56;;;;;;;18.65;12.55;;;;;;;21.09;57.60;100674.75;5028068;28;20418;-76
2021/07/20 08:01:23;;;;;;;17.85;13.55;;;;;;;21.15;57.79;100670.75;5032669;28;20878;-76
2021/07/20 08:03:49;;;;;;;15.27;12.55;;;;;;;21.14;56.87;100671.06;5030385;28;20415;-77
2021/07/20 08:06:20;;;;;;;23.75;13.10;;;;;;;21.14;56.79;100674.63;5033542;28;20445;-77
2021/07/20 08:08:48;;;;;;;18.45;12.88;;;;;;;21.14;56.82;100666.34;5026132;28;20875;-77
2021/07/20 08:11:14;;;;;;;17.57;14.17;;;;;;;21.15;56.61;100675.44;5038575;28;20422;-76
2021/07/20 08:13:42;;;;;;;22.25;13.93;;;;;;;21.12;56.70;100679.63;5043384;28;20464;-76
2021/07/20 08:16:09;;;;;;;18.08;13.30;;;;;;;21.18;57.19;100677.56;5019678;28;20396;-76
2021/07/20 08:18:34;;;;;;;15.70;12.90;;;;;;;21.21;57.04;100671.44;4994319;28;20389;-77
2021/07/20 08:21:04;;;;;;;18.30;12.80;;;;;;;21.21;56.72;100676.97;5029671;28;20399;-77
2021/07/20 08:23:31;;;;;;;16.80;12.88;;;;;;;21.28;56.67;100682.88;5030474;28;20495;-77
2021/07/20 08:26:01;;;;;;;16.55;13.10;;;;;;;21.38;56.45;100690.06;5030187;28;20763;-77
2021/07/20 08:28:48;;;;;;;19.38;13.82;;;;;;;21.43;55.77;100682.53;5013680;28;20406;-77
2021/07/20 08:31:14;;;;;;;17.90;12.48;;;;;;;21.41;55.36;100682.00;5031375;28;20379;-77
2021/07/20 08:33:42;;;;;;;18.90;12.63;;;;;;;21.40;55.77;100682.34;5029819;28;20418;-76
2021/07/20 08:36:10;;;;;;;16.23;11.18;;;;;;;21.50;54.75;100682.91;5031375;28;20406;-77
2021/07/20 08:38:35;;;;;;;15.77;11.57;;;;;;;21.58;54.00;100682.16;5013358;28;20410;-76
2021/07/20 08:41:14;;;;;;;17.50;12.10;;;;;;;21.63;54.30;100678.47;5031386;28;20411;-77
2021/07/20 08:44:04;;;;;;;20.02;11.25;;;;;;;21.72;54.31;100682.09;5030342;28;20415;-77
2021/07/20 08:46:52;;;;;;;18.38;11.95;;;;;;;21.81;53.73;100684.91;5031150;28;20430;-77
2021/07/20 08:49:52;;;;;;;15.20;10.57;;;;;;;21.94;53.40;100678.53;5031170;28;20395;-77
2021/07/20 08:52:24;;;;;;;16.27;11.57;;;;;;;22.01;53.10;100679.72;5013509;28;20430;-77
2021/07/20 08:54:59;;;;;;;18.75;12.15;;;;;;;22.10;52.41;100679.75;5028853;28;20502;-77
2021/07/20 08:57:42;;;;;;;14.18;10.60;;;;;;;22.14;53.47;100683.53;5030798;28;20444;-77
2021/07/20 09:00:14;;;;;;;15.70;10.65;;;;;;;22.22;53.04;100680.00;5013388;28;20889;-77
2021/07/20 09:03:06;;;;;;;17.77;11.35;;;;;;;22.29;53.46;100685.91;5031161;28;20399;-77
2021/07/20 09:05:46;;;;;;;17.10;12.83;;;;;;;22.46;53.49;100671.34;5011349;28;20868;-77
2021/07/20 09:08:29;;;;;;;19.90;11.63;;;;;;;22.58;53.53;100688.13;5030682;28;20738;-77
2021/07/20 09:11:03;;;;;;;17.33;11.23;;;;;;;22.63;53.30;100691.56;5013348;28;20491;-77
2021/07/20 09:13:34;;;;;;;14.05;10.77;;;;;;;22.65;52.11;100686.53;5010579;28;20472;-78
2021/07/20 09:16:10;;;;;;;18.42;10.57;;;;;;;22.65;53.08;100685.72;5027268;28;20419;-77
2021/07/20 09:19:00;;;;;;;16.30;10.77;;;;;;;22.79;51.86;100680.13;5020098;28;20425;-77
2021/07/20 09:21:29;;;;;;;11.88;9.73;;;;;;;22.97;51.81;100681.78;5009914;28;20902;-77
2021/07/20 09:24:04;;;;;;;13.23;9.63;;;;;;;22.97;50.96;100679.84;5030391;28;20418;-78
2021/07/20 09:26:37;;;;;;;17.08;9.65;;;;;;;22.97;50.88;100677.06;5031493;28;20433;-77
2021/07/20 09:29:02;;;;;;;14.68;10.07;;;;;;;23.10;50.73;100678.06;5034612;28;20872;-77
2021/07/20 09:31:46;;;;;;;15.20;10.70;;;;;;;23.30;50.44;100680.19;5012997;28;20487;-77
2021/07/20 09:35:05;;;;;;;12.00;9.40;;;;;;;23.35;49.20;100671.72;5033170;28;20411;-77
2021/07/20 09:37:54;;;;;;;16.00;10.02;;;;;;;23.55;49.57;100671.13;5018202;28;20437;-77
2021/07/20 09:40:50;;;;;;;13.68;9.50;;;;;;;23.77;48.02;100673.72;5032397;28;20461;-77
2021/07/20 09:43:47;;;;;;;14.43;10.60;;;;;;;23.83;47.50;100668.00;5034009;28;20759;-76
2021/07/20 09:46:20;;;;;;;12.95;9.43;;;;;;;23.98;47.10;100661.94;5026428;28;20422;-77
2021/07/20 09:48:53;;;;;;;15.93;10.32;;;;;;;24.02;45.88;100665.69;4999994;28;20410;-77
2021/07/20 09:51:43;;;;;;;15.05;11.05;;;;;;;24.23;45.83;100653.59;5032809;28;20407;-77
2021/07/20 09:54:30;;;;;;;18.38;10.18;;;;;;;24.47;45.74;100654.97;4996973;28;20409;-77
2021/07/20 09:57:41;;;;;;;13.30;10.27;;;;;;;24.66;45.19;100658.16;5014906;28;20488;-77
2021/07/20 10:00:18;;;;;;;13.20;11.02;;;;;;;24.90;45.25;100658.34;5016730;28;20924;-77
2021/07/20 10:02:47;;;;;;;13.45;9.20;;;;;;;25.29;45.22;100657.13;5014557;28;20507;-77
2021/07/20 10:05:50;;;;;;;13.70;9.90;;;;;;;25.68;43.83;100666.94;5015163;28;20411;-77
2021/07/20 10:08:32;;;;;;;14.48;9.55;;;;;;;26.37;41.30;100661.47;5014918;28;20405;-78
2021/07/20 10:11:16;;;;;;;13.32;9.63;;;;;;;27.43;37.90;100652.94;5034087;28;20421;-77
2021/07/20 10:14:16;;;;;;;15.55;9.38;;;;;;;30.69;32.98;100657.31;5032019;28;20411;-78
2021/07/20 10:16:47;;;;;;;15.02;9.38;;;;;;;33.30;27.47;100661.41;5034954;28;20415;-77
2021/07/20 10:19:19;;;;;;;12.18;9.63;;;;;;;35.21;25.90;100667.34;5033902;28;20465;-78
2021/07/20 10:21:49;;;;;;;10.27;8.73;;;;;;;37.23;22.36;100661.19;5016742;28;20414;-77
2021/07/20 10:24:23;;;;;;;11.93;9.02;;;;;;;38.10;21.60;100664.16;5015317;28;20403;-78
2021/07/20 10:27:05;;;;;;;16.23;9.60;;;;;;;38.78;20.55;100672.34;5027046;28;20755;-78
2021/07/20 10:29:39;;;;;;;12.45;9.75;;;;;;;39.32;19.43;100670.16;5042794;28;20407;-78
2021/07/20 10:32:47;;;;;;;11.90;9.90;;;;;;;39.55;18.84;100672.13;5034184;28;20395;-78
2021/07/20 10:35:29;;;;;;;11.02;9.85;;;;;;;39.93;18.39;100671.28;5013979;28;20393;-78
2021/07/20 10:37:57;;;;;;;10.68;9.55;;;;;;;39.72;18.46;100666.06;5017338;28;20759;-78
2021/07/20 10:40:31;;;;;;;10.48;9.38;;;;;;;39.64;19.43;100667.44;5035261;28;20967;-78
2021/07/20 10:43:31;;;;;;;12.25;8.77;;;;;;;39.71;19.65;100669.34;5034187;28;20407;-78
2021/07/20 10:45:58;;;;;;;12.20;9.97;;;;;;;39.46;19.04;100669.84;5028892;28;20843;-78
2021/07/20 10:48:38;;;;;;;12.02;9.60;;;;;;;39.34;19.59;100668.47;5050476;28;20409;-78
2021/07/20 10:51:12;;;;;;;12.40;10.15;;;;;;;39.50;19.19;100667.75;5034984;28;20407;-78
2021/07/20 10:53:59;;;;;;;10.77;9.73;;;;;;;40.25;18.84;100675.41;5016231;28;20573;-78
2021/07/20 10:56:36;;;;;;;11.45;9.52;;;;;;;40.18;18.70;100669.94;5052647;28;20421;-78
2021/07/20 10:59:33;;;;;;;12.40;9.52;;;;;;;40.47;18.87;100668.00;5012361;28;20421;-78
2021/07/20 11:02:01;;;;;;;11.10;9.80;;;;;;;40.06;19.14;100670.59;4997768;28;20437;-78
2021/07/20 11:05:00;;;;;;;12.03;10.37;;;;;;;39.89;18.34;100662.03;4998331;28;20390;-79
2021/07/20 11:07:52;;;;;;;11.73;10.53;;;;;;;39.06;18.81;100665.38;5014093;28;20401;-78
2021/07/20 11:10:22;;;;;;;11.50;10.38;;;;;;;38.73;19.52;100659.47;5013795;28;20470;-78
2021/07/20 11:12:54;;;;;;;10.80;9.70;;;;;;;38.99;19.36;100657.81;5013364;28;20452;-78
2021/07/20 11:15:22;;;;;;;10.93;9.93;;;;;;;38.88;19.44;100655.19;5010465;28;20397;-78
2021/07/20 11:17:51;;;;;;;13.30;10.30;;;;;;;38.33;20.91;100661.31;5008521;28;20493;-78
2021/07/20 11:20:19;;;;;;;15.48;10.27;;;;;;;38.24;20.41;100655.41;5023558;28;20404;-78
2021/07/20 11:22:46;;;;;;;12.65;10.52;;;;;;;38.18;20.39;100659.97;5012172;28;20423;-78
2021/07/20 11:25:14;;;;;;;12.38;10.32;;;;;;;38.14;20.45;100658.41;5044677;28;20455;-80
2021/07/20 11:27:51;;;;;;;11.07;9.85;;;;;;;38.31;20.28;100648.84;5021297;28;20403;-81
2021/07/20 11:30:21;;;;;;;14.27;10.70;;;;;;;38.50;20.27;100650.19;5031254;28;20402;-81